Terminal Aerodrome Forecast
Issued by NWS Louisville, KY

Home | Current Version | Previous Version | Text Only | Print | Product List | Glossary On
Versions: 1 2 3 4 5 6 7 8 9 10 11 12 13 14 15 16 17 18 19 20 21 22 23
000
FTUS43 KLMK 022000 AAA
TAFBWG
TAF AMD
KBWG 022034Z 0221/0318 20010KT 1SM TSRA BR BKN035CB OVC050
     FM022300 21007KT 6SM SHRA VCTS BKN035CB
     FM030400 21007KT 5SM BR VCSH SCT010 BKN100
     FM030800 VRB03KT 4SM BR VCSH BKN008
     FM031400 25006KT 6SM HZ BKN015=

USA.gov is the U.S. government's official web portal to all federal, state and local government web resources and services.